METAR - Ísland

Uppfært síðast 26.06.2022 - kl. 08:39

SIGMET síðustu 6 klst.

Engin SIGMET skeyti bárust síðustu 6 klst.

METAR síðustu 3 klst

Frá og með 1. október munu brautarskilyrði ekki birtast í METAR skeytum.
Í staðinn mun ISAVIA gefa út SNOWTAM á síðunni SNOWTAM | Isavia.

Flugv.TímiSkeyti
BIAR2022-06-26 08.00METAR BIAR 260800Z 34013KT 9999 -DZ FEW016 BKN027 OVC036 05/03 Q1014
BIAR2022-06-26 07.00METAR BIAR 260700Z 34013KT 9999 -RA SCT016 OVC024 05/03 Q1014
BIAR2022-06-26 06.00METAR BIAR 260600Z 34012KT 9999 DZ BKN018 OVC021 05/03 Q1014
BIEG2022-06-26 08.00METAR BIEG 260800Z 29006KT 210V320 9999 BKN030 OVC036 06/01 Q1010
BIEG2022-06-26 07.00METAR BIEG 260700Z 00000KT 9999 SCT033 BKN042 OVC049 06/01 Q1010
BIEG2022-06-26 06.00METAR BIEG 260600Z 14004KT 9999 SCT031 BKN037 05/02 Q1010
BIHN2022-06-26 08.00METAR BIHN 260800Z 31015KT 9999 FEW035 BKN070 09/M01 Q1009
BIIS2022-06-26 08.00METAR BIIS 260800Z 03016KT 9999 BKN018 OVC025 06/02 Q1017
BIKF2022-06-26 08.30METAR BIKF 260830Z 01022KT 9999 BKN020 07/03 Q1012
BIKF2022-06-26 08.00METAR BIKF 260800Z 36022KT 9999 VCSH BKN017 06/03 Q1012
BIKF2022-06-26 07.30METAR BIKF 260730Z 01021KT 9999 BKN017 06/03 Q1013
BIKF2022-06-26 07.01METAR BIKF 260701Z 36021KT 9999 BKN018 BKN050 06/03 Q1013
BIKF2022-06-26 06.30METAR BIKF 260630Z 01019KT 9999 SCT018 BKN050 06/02 Q1013
BIKF2022-06-26 06.00METAR BIKF 260600Z 01020KT 9999 SCT017 BKN050 06/02 Q1013
BIRK2022-06-26 08.00METAR BIRK 260800Z 01022KT 9999 SCT026 07/01 Q1012
BIRK2022-06-26 07.00METAR BIRK 260700Z 01020KT 9999 FEW023 BKN055 06/01 Q1013
BIRK2022-06-26 06.00METAR BIRK 260600Z 01016KT 9999 FEW019 BKN024 BKN053 06/01 Q1013

Textaspár eru skrifaðar af vakthafandi veðurfræðingi á Veðurstofu Íslands.




Aðrir tengdir vefir



Þetta vefsvæði byggir á Eplica